createdAt,value
2019-06-26T00:04:01.486Z,76.17
2019-06-26T00:09:06.088Z,77.22
2019-06-26T00:14:08.007Z,77.10
2019-06-26T00:19:09.830Z,78.92
2019-06-26T00:24:11.697Z,79.89
2019-06-26T00:29:13.583Z,79.75
2019-06-26T00:34:15.447Z,79.53
2019-06-26T00:39:17.372Z,78.87
2019-06-26T00:44:19.126Z,78.16
2019-06-26T00:49:20.987Z,77.79
2019-06-26T00:54:22.806Z,78.17
2019-06-26T00:59:24.647Z,78.04
2019-06-26T01:04:31.219Z,78.14
2019-06-26T01:09:33.056Z,78.38
2019-06-26T01:14:34.875Z,78.19
2019-06-26T01:19:37.332Z,78.99
2019-06-26T01:24:39.114Z,80.76
2019-06-26T01:29:40.968Z,81.04
2019-06-26T01:34:42.815Z,81.45
2019-06-26T01:39:44.627Z,80.87
2019-06-26T01:44:46.469Z,80.64
2019-06-26T01:49:48.275Z,79.85
2019-06-26T01:54:50.108Z,79.90
2019-06-26T01:59:51.983Z,79.39
2019-06-26T02:04:53.895Z,78.26
2019-06-26T02:09:55.728Z,78.83
2019-06-26T02:14:57.568Z,78.56
2019-06-26T02:19:59.370Z,78.44
2019-06-26T02:25:01.227Z,78.91
2019-06-26T02:30:05.367Z,79.08
2019-06-26T02:35:09.669Z,79.32
2019-06-26T02:40:11.617Z,78.43
2019-06-26T02:45:13.960Z,78.77
2019-06-26T02:50:15.962Z,78.10
2019-06-26T02:55:17.810Z,78.05
2019-06-26T03:00:19.668Z,78.40
2019-06-26T03:05:21.446Z,78.47
2019-06-26T03:10:23.527Z,78.51
2019-06-26T03:15:25.319Z,78.72
2019-06-26T03:20:30.794Z,78.30
2019-06-26T03:25:32.614Z,79.13
2019-06-26T03:30:34.487Z,79.60
2019-06-26T03:35:36.275Z,80.00
2019-06-26T03:40:38.135Z,79.51
2019-06-26T03:45:39.913Z,78.47
2019-06-26T03:50:41.750Z,78.77
2019-06-26T03:55:43.550Z,78.70
2019-06-26T04:00:46.646Z,76.19
2019-06-26T04:05:48.529Z,75.24
2019-06-26T04:10:50.374Z,75.21
2019-06-26T04:15:52.239Z,76.64
2019-06-26T04:20:54.078Z,76.60
2019-06-26T04:25:55.869Z,76.86
2019-06-26T04:30:57.695Z,77.77
2019-06-26T04:35:59.567Z,77.46
2019-06-26T04:41:01.361Z,77.44
2019-06-26T04:46:03.375Z,77.32
2019-06-26T04:51:05.177Z,77.79
2019-06-26T04:56:07.009Z,77.68
2019-06-26T05:01:08.828Z,77.86
2019-06-26T05:06:10.677Z,76.84
2019-06-26T05:11:13.046Z,76.84
2019-06-26T05:16:19.249Z,75.66
2019-06-26T05:21:18.879Z,75.31
2019-06-26T05:26:20.856Z,77.02
2019-06-26T05:31:22.671Z,77.39
2019-06-26T05:36:24.570Z,74.49
2019-06-26T05:41:26.491Z,74.54
2019-06-26T05:46:31.463Z,74.34
2019-06-26T05:51:32.228Z,71.58
2019-06-26T05:56:34.163Z,71.31
2019-06-26T06:01:36.120Z,70.03
2019-06-26T06:06:42.136Z,69.51
2019-06-26T06:11:41.743Z,68.18
2019-06-26T06:16:47.689Z,68.00
2019-06-26T06:21:47.262Z,70.19
2019-06-26T06:26:49.208Z,69.57
2019-06-26T06:31:51.048Z,67.52
2019-06-26T06:36:52.829Z,67.74
2019-06-26T06:41:54.683Z,68.27
2019-06-26T06:47:03.913Z,65.37
2019-06-26T06:52:00.330Z,63.51
2019-06-26T06:57:02.257Z,61.88
2019-06-26T07:02:05.657Z,62.77
2019-06-26T07:07:07.495Z,61.06
2019-06-26T07:12:09.424Z,60.51
2019-06-26T07:17:20.539Z,61.24
2019-06-26T07:22:15.246Z,63.10
2019-06-26T07:27:17.333Z,62.57
2019-06-26T07:32:19.365Z,62.42
2019-06-26T07:37:21.245Z,62.75
2019-06-26T07:42:23.197Z,63.10
2019-06-26T07:47:41.497Z,62.89
2019-06-26T07:52:28.800Z,65.38
2019-06-26T07:57:30.720Z,63.99
2019-06-26T08:02:32.633Z,62.79
2019-06-26T08:07:34.603Z,63.38
2019-06-26T08:12:36.564Z,63.96
2019-06-26T08:17:38.353Z,63.88
2019-06-26T08:22:40.267Z,63.53
2019-06-26T08:27:42.134Z,63.58
2019-06-26T08:32:44.194Z,63.13
2019-06-26T08:37:46.168Z,60.90
2019-06-26T08:42:47.997Z,60.50
2019-06-26T08:47:49.936Z,61.83
2019-06-26T08:52:51.936Z,60.49
2019-06-26T08:57:53.949Z,60.49
2019-06-26T09:02:55.823Z,59.33
2019-06-26T09:07:58.091Z,60.25
2019-06-26T09:13:00.085Z,62.40
2019-06-26T09:18:01.972Z,59.50
2019-06-26T09:23:03.946Z,59.43
2019-06-26T09:28:05.862Z,58.09
2019-06-26T09:33:07.758Z,59.15
2019-06-26T09:38:09.748Z,58.80
2019-06-26T09:43:11.733Z,57.67
2019-06-26T09:48:13.602Z,58.50
2019-06-26T09:53:15.491Z,59.15
2019-06-26T09:58:17.347Z,57.95
2019-06-26T10:03:19.190Z,59.13
2019-06-26T10:08:21.027Z,57.83
2019-06-26T10:13:23.045Z,57.92
2019-06-26T10:18:24.859Z,56.10
2019-06-26T10:23:26.880Z,56.11
2019-06-26T10:28:28.831Z,53.17
2019-06-26T10:33:30.690Z,53.21
2019-06-26T10:38:32.488Z,54.00
2019-06-26T10:43:34.563Z,53.94
2019-06-26T10:48:36.419Z,51.91
2019-06-26T10:53:39.544Z,53.78
2019-06-26T10:58:41.337Z,54.94
2019-06-26T11:03:43.279Z,51.86
2019-06-26T11:08:45.818Z,52.20
2019-06-26T11:13:47.995Z,52.89
2019-06-26T11:18:50.064Z,49.82
2019-06-26T11:23:51.970Z,53.23
2019-06-26T11:28:53.924Z,52.88
2019-06-26T11:33:55.791Z,51.71
2019-06-26T11:38:57.713Z,50.69
2019-06-26T11:43:59.588Z,49.76
2019-06-26T11:49:01.518Z,50.81
2019-06-26T11:54:03.580Z,50.12
2019-06-26T11:59:05.299Z,49.91
2019-06-26T12:04:07.488Z,51.97
2019-06-26T12:09:09.163Z,49.94
2019-06-26T12:14:11.135Z,49.69
2019-06-26T12:19:13.116Z,48.75
2019-06-26T12:24:14.957Z,48.76
2019-06-26T12:29:17.371Z,49.69
2019-06-26T12:34:19.274Z,49.56
2019-06-26T12:39:21.277Z,50.82
2019-06-26T12:44:24.660Z,51.03
2019-06-26T12:49:26.790Z,50.14
2019-06-26T12:54:29.042Z,49.27
2019-06-26T12:59:36.413Z,50.12
2019-06-26T13:04:38.614Z,49.79
2019-06-26T13:09:40.568Z,49.57
2019-06-26T13:14:42.604Z,51.56
2019-06-26T13:19:44.796Z,49.59
2019-06-26T13:24:47.994Z,50.32
2019-06-26T13:29:50.516Z,51.13
2019-06-26T13:34:52.945Z,51.49
2019-06-26T13:39:54.796Z,50.13
2019-06-26T13:44:57.700Z,49.75
2019-06-26T13:49:59.788Z,50.45
2019-06-26T13:55:01.544Z,52.61
2019-06-26T14:00:06.858Z,51.08
2019-06-26T14:05:09.240Z,50.82
2019-06-26T14:10:11.344Z,51.41
2019-06-26T14:15:13.355Z,51.26
2019-06-26T14:20:17.330Z,51.79
2019-06-26T14:25:19.175Z,51.73
2019-06-26T14:30:21.651Z,52.00
2019-06-26T14:35:23.623Z,51.65
2019-06-26T14:40:25.622Z,51.82
2019-06-26T14:45:27.575Z,52.47
2019-06-26T14:50:29.391Z,52.24
2019-06-26T14:55:31.271Z,51.76
2019-06-26T15:00:33.446Z,52.24
2019-06-26T15:05:36.338Z,52.26
2019-06-26T15:10:38.309Z,52.05
2019-06-26T15:15:40.483Z,52.36
2019-06-26T15:20:42.656Z,52.68
2019-06-26T15:25:44.415Z,53.31
2019-06-26T15:30:46.370Z,53.36
2019-06-26T15:35:48.335Z,54.05
2019-06-26T15:40:50.251Z,54.54
2019-06-26T15:45:52.114Z,54.04
2019-06-26T15:50:55.603Z,53.49
2019-06-26T15:55:57.418Z,53.37
2019-06-26T16:00:59.357Z,54.24
2019-06-26T16:06:01.249Z,53.80
2019-06-26T16:11:03.173Z,54.81
2019-06-26T16:16:05.032Z,55.30
2019-06-26T16:21:08.083Z,56.16
2019-06-26T16:26:09.970Z,55.97
2019-06-26T16:31:11.808Z,56.13
2019-06-26T16:36:13.672Z,56.08
2019-06-26T16:41:15.504Z,55.67
2019-06-26T16:46:17.391Z,56.50
2019-06-26T16:51:19.227Z,56.42
2019-06-26T16:56:21.144Z,56.72
2019-06-26T17:01:22.998Z,56.30
2019-06-26T17:06:25.135Z,56.67
2019-06-26T17:11:26.942Z,57.21
2019-06-26T17:16:28.808Z,57.55
2019-06-26T17:21:30.641Z,57.95
2019-06-26T17:26:32.483Z,58.79
2019-06-26T17:31:34.323Z,58.55
2019-06-26T17:36:36.323Z,58.77
2019-06-26T17:41:39.199Z,58.00
2019-06-26T17:46:41.158Z,57.28
2019-06-26T17:51:43.079Z,57.23
2019-06-26T17:56:45.017Z,55.62
2019-06-26T18:01:46.882Z,55.96
2019-06-26T18:06:48.825Z,56.49
2019-06-26T18:11:50.659Z,57.79
2019-06-26T18:16:52.560Z,58.79
2019-06-26T18:21:54.444Z,61.20
2019-06-26T18:42:23.721Z,68.98
2019-06-26T18:47:25.844Z,69.82
2019-06-26T18:52:27.831Z,70.66
2019-06-26T18:57:29.916Z,71.16
2019-06-26T19:02:31.773Z,72.55
2019-06-26T19:07:35.818Z,72.76
2019-06-26T19:12:38.120Z,74.78
2019-06-26T19:17:42.552Z,74.89
2019-06-26T19:22:47.458Z,75.50
2019-06-26T19:27:50.279Z,74.54
2019-06-26T19:32:52.667Z,77.64
2019-06-26T19:37:56.636Z,78.45
2019-06-26T19:42:59.828Z,78.57
2019-06-26T19:48:02.024Z,77.32
2019-06-26T19:53:04.858Z,76.90
2019-06-26T19:58:07.144Z,76.45
2019-06-26T20:08:54.707Z,76.02
2019-06-26T20:13:54.995Z,76.64
2019-06-26T20:18:56.500Z,76.86
2019-06-26T20:23:59.289Z,75.46
2019-06-26T20:29:02.047Z,75.93
2019-06-26T20:34:05.197Z,76.55
2019-06-26T20:39:06.827Z,76.87
2019-06-26T20:44:10.027Z,76.89
2019-06-26T20:49:12.518Z,76.79
2019-06-26T20:54:14.260Z,76.92
2019-06-26T20:59:15.943Z,77.28
2019-06-26T21:04:17.731Z,77.22
2019-06-26T21:09:19.475Z,77.27
2019-06-26T21:14:21.013Z,76.92
2019-06-26T21:19:22.361Z,77.32
2019-06-26T21:24:23.634Z,76.28
2019-06-26T21:29:25.190Z,76.56
2019-06-26T21:34:26.539Z,77.86
2019-06-26T21:39:27.923Z,78.16
2019-06-26T21:44:29.632Z,77.91
2019-06-26T21:49:31.108Z,77.34
2019-06-26T21:54:32.836Z,76.25
2019-06-26T21:59:53.208Z,76.70
2019-06-26T22:05:13.996Z,77.84
2019-06-26T22:10:29.541Z,78.62
2019-06-26T22:15:31.723Z,77.47
2019-06-26T22:20:33.666Z,77.56
2019-06-26T22:25:49.898Z,77.62
2019-06-26T22:30:39.510Z,76.67
2019-06-26T22:35:41.672Z,75.78
2019-06-26T22:40:43.500Z,77.13
2019-06-26T22:45:45.379Z,77.69
2019-06-26T22:50:47.229Z,77.99
2019-06-26T22:55:49.180Z,78.08
2019-06-26T23:00:51.016Z,78.46
2019-06-26T23:05:52.923Z,78.03
2019-06-26T23:10:54.776Z,77.40
2019-06-26T23:15:56.609Z,76.40
2019-06-26T23:20:58.474Z,77.24
2019-06-26T23:26:00.294Z,77.06
2019-06-26T23:31:02.305Z,76.33
2019-06-26T23:36:05.288Z,76.60
2019-06-26T23:41:07.115Z,78.81
2019-06-26T23:46:08.983Z,79.15
2019-06-26T23:51:10.948Z,79.52
2019-06-26T23:56:12.814Z,77.66
